createdAt,value
2018-11-07T00:01:55.286Z,100804.30
2018-11-07T00:04:23.861Z,100801.57
2018-11-07T00:06:52.342Z,100805.53
2018-11-07T00:09:21.071Z,100806.86
2018-11-07T00:11:49.606Z,100810.45
2018-11-07T00:14:18.179Z,100801.57
2018-11-07T00:16:46.859Z,100803.27
2018-11-07T00:19:15.344Z,100805.16
2018-11-07T00:21:44.222Z,100673.67
2018-11-07T00:24:12.723Z,100798.92
2018-11-07T00:26:41.371Z,100798.92
2018-11-07T00:29:10.128Z,100793.80
2018-11-07T00:31:38.675Z,100802.43
2018-11-07T00:34:07.247Z,100803.59
2018-11-07T00:36:35.723Z,100799.63
2018-11-07T00:39:06.097Z,100799.25
2018-11-07T00:41:34.577Z,100804.91
2018-11-07T00:44:03.571Z,100802.84
2018-11-07T00:46:32.206Z,100804.45
2018-11-07T00:49:01.455Z,100794.75
2018-11-07T00:51:30.144Z,100804.00
2018-11-07T00:53:58.870Z,100798.22
2018-11-07T00:56:27.334Z,100800.78
2018-11-07T00:58:55.823Z,100793.27
2018-11-07T01:01:24.623Z,100799.79
2018-11-07T01:03:53.258Z,100794.18
2018-11-07T01:06:22.079Z,100796.45
2018-11-07T01:08:51.038Z,100792.27
2018-11-07T01:11:19.629Z,100790.95
2018-11-07T01:13:48.206Z,100792.27
2018-11-07T01:16:16.815Z,100791.48
2018-11-07T01:18:45.274Z,100782.61
2018-11-07T01:21:13.755Z,100792.88
2018-11-07T01:23:42.636Z,100782.77
2018-11-07T01:26:11.220Z,100793.53
2018-11-07T01:28:39.845Z,100782.63
2018-11-07T01:31:08.371Z,100780.23
2018-11-07T01:33:36.891Z,100775.67
2018-11-07T01:36:05.655Z,100776.05
2018-11-07T01:38:34.341Z,100774.81
2018-11-07T01:41:02.998Z,100777.91
2018-11-07T01:43:31.498Z,100771.30
2018-11-07T01:46:00.298Z,100770.55
2018-11-07T01:48:28.796Z,100767.98
2018-11-07T01:50:57.420Z,100763.31
2018-11-07T01:53:25.966Z,100766.34
2018-11-07T01:55:54.475Z,100758.57
2018-11-07T01:58:23.357Z,100641.89
2018-11-07T02:00:51.894Z,100764.17
2018-11-07T02:03:20.673Z,100761.69
2018-11-07T02:05:49.200Z,100761.77
2018-11-07T02:08:17.813Z,100756.56
2018-11-07T02:10:46.302Z,100758.45
2018-11-07T02:13:14.848Z,100758.45
2018-11-07T02:15:43.627Z,100746.86
2018-11-07T02:18:12.177Z,100750.37
2018-11-07T02:20:40.987Z,100747.89
2018-11-07T02:23:09.477Z,100761.33
2018-11-07T02:25:38.043Z,100754.25
2018-11-07T02:28:06.664Z,100751.39
2018-11-07T02:30:35.183Z,100757.12
2018-11-07T02:33:04.141Z,100754.11
2018-11-07T02:35:32.614Z,100748.83
2018-11-07T02:38:01.756Z,100749.77
2018-11-07T02:40:30.344Z,100743.62
2018-11-07T02:42:59.318Z,100739.52
2018-11-07T02:45:27.843Z,100739.67
2018-11-07T02:47:56.432Z,100737.56
2018-11-07T02:50:24.934Z,100739.95
2018-11-07T02:52:53.483Z,100738.37
2018-11-07T02:55:22.299Z,100690.32
2018-11-07T02:57:50.834Z,100738.30
2018-11-07T03:00:19.775Z,100729.70
2018-11-07T03:02:48.307Z,100738.22
2018-11-07T03:05:16.957Z,100739.95
2018-11-07T03:07:45.454Z,100739.95
2018-11-07T03:10:14.225Z,100735.58
2018-11-07T03:12:43.001Z,100725.95
2018-11-07T03:15:11.562Z,100726.12
2018-11-07T03:17:40.530Z,100712.92
2018-11-07T03:20:10.759Z,100717.56
2018-11-07T03:22:39.550Z,100714.17
2018-11-07T03:25:08.023Z,100720.92
2018-11-07T03:27:36.561Z,100721.45
2018-11-07T03:30:06.302Z,100721.75
2018-11-07T03:32:34.923Z,100725.11
2018-11-07T03:35:03.571Z,100723.94
2018-11-07T03:37:32.142Z,100728.42
2018-11-07T03:40:00.935Z,100718.02
2018-11-07T03:42:29.406Z,100720.21
2018-11-07T03:44:58.312Z,100726.88
2018-11-07T03:47:26.875Z,100727.41
2018-11-07T03:49:55.492Z,100725.15
2018-11-07T03:52:24.006Z,100720.97
2018-11-07T03:54:52.494Z,100725.86
2018-11-07T03:57:21.226Z,100713.50
2018-11-07T03:59:49.809Z,100725.86
2018-11-07T04:02:18.411Z,100718.63
2018-11-07T04:04:46.879Z,100723.90
2018-11-07T04:07:15.607Z,100713.88
2018-11-07T04:09:44.105Z,100705.36
2018-11-07T04:12:12.583Z,100703.62
2018-11-07T04:14:41.308Z,100691.59
2018-11-07T04:17:09.847Z,100707.87
2018-11-07T04:19:38.883Z,100705.39
2018-11-07T04:22:07.361Z,100704.22
2018-11-07T04:24:36.148Z,100698.78
2018-11-07T04:27:04.635Z,100699.95
2018-11-07T04:29:33.294Z,100702.14
2018-11-07T04:32:01.892Z,100712.31
2018-11-07T04:34:30.377Z,100711.52
2018-11-07T04:36:59.370Z,100714.45
2018-11-07T04:39:27.853Z,100713.36
2018-11-07T04:41:56.728Z,100708.73
2018-11-07T04:44:25.278Z,100703.75
2018-11-07T04:46:53.791Z,100704.42
2018-11-07T04:49:22.387Z,100699.15
2018-11-07T04:51:50.964Z,100702.58
2018-11-07T04:54:19.731Z,100694.74
2018-11-07T04:56:48.295Z,100707.06
2018-11-07T04:59:17.102Z,100657.81
2018-11-07T05:01:45.570Z,100710.78
2018-11-07T05:04:14.119Z,100713.34
2018-11-07T05:06:42.586Z,100708.07
2018-11-07T05:09:11.066Z,100713.42
2018-11-07T05:11:39.941Z,100709.08
2018-11-07T05:14:08.512Z,100715.11
2018-11-07T05:16:37.650Z,100717.75
2018-11-07T05:19:06.251Z,100715.98
2018-11-07T05:21:35.098Z,100715.53
2018-11-07T05:24:03.686Z,100722.12
2018-11-07T05:26:32.338Z,100723.44
2018-11-07T05:29:00.855Z,100726.59
2018-11-07T05:31:29.427Z,100736.34
2018-11-07T05:33:58.462Z,100731.15
2018-11-07T05:36:27.313Z,100731.36
2018-11-07T05:38:56.139Z,100733.86
2018-11-07T05:41:24.664Z,100738.58
2018-11-07T05:43:53.558Z,100651.47
2018-11-07T05:46:22.071Z,100736.98
2018-11-07T05:48:50.621Z,100733.97
2018-11-07T05:51:21.932Z,100624.52
2018-11-07T05:53:50.487Z,100735.60
2018-11-07T05:56:19.762Z,100722.33
2018-11-07T05:58:48.403Z,100731.17
2018-11-07T06:01:18.972Z,100726.18
2018-11-07T06:03:47.470Z,100727.08
2018-11-07T06:06:16.529Z,100725.94
2018-11-07T06:08:45.027Z,100724.63
2018-11-07T06:11:13.824Z,100724.30
2018-11-07T06:13:42.399Z,100723.76
2018-11-07T06:16:11.196Z,100725.52
2018-11-07T06:18:39.776Z,100727.26
2018-11-07T06:21:08.409Z,100734.23
2018-11-07T06:23:36.951Z,100729.89
2018-11-07T06:26:07.079Z,100731.73
2018-11-07T06:28:35.719Z,100728.30
2018-11-07T06:31:04.263Z,100726.60
2018-11-07T06:33:33.037Z,100634.42
2018-11-07T06:36:01.535Z,100721.47
2018-11-07T06:38:30.468Z,100731.48
2018-11-07T06:40:58.974Z,100735.02
2018-11-07T06:43:27.505Z,100729.27
2018-11-07T06:45:56.125Z,100735.72
2018-11-07T06:48:24.648Z,100729.66
2018-11-07T06:50:53.535Z,100723.73
2018-11-07T06:53:22.139Z,100725.31
2018-11-07T06:55:53.198Z,100729.79
2018-11-07T06:58:25.371Z,100733.08
2018-11-07T07:00:57.263Z,100725.14
2018-11-07T07:03:29.267Z,100735.99
2018-11-07T07:05:58.790Z,100744.80
2018-11-07T07:08:30.831Z,100743.89
2018-11-07T07:11:02.540Z,100742.44
2018-11-07T07:13:55.098Z,100730.72
2018-11-07T07:16:26.467Z,100736.09
2018-11-07T07:19:01.889Z,100726.81
2018-11-07T07:21:38.652Z,100724.25
2018-11-07T07:24:08.000Z,100731.42
2018-11-07T07:26:41.341Z,100723.97
2018-11-07T07:29:13.831Z,100728.37
2018-11-07T07:31:49.873Z,100722.65
2018-11-07T07:34:22.231Z,100730.17
2018-11-07T07:36:50.931Z,100733.05
2018-11-07T07:39:19.516Z,100729.89
2018-11-07T07:41:48.317Z,100724.63
2018-11-07T07:44:16.840Z,100725.52
2018-11-07T07:46:45.551Z,100718.70
2018-11-07T07:49:14.841Z,100716.06
2018-11-07T07:51:43.514Z,100713.81
2018-11-07T07:54:12.051Z,100717.23
2018-11-07T07:56:40.531Z,100713.91
2018-11-07T07:59:09.508Z,100648.45
2018-11-07T08:01:38.034Z,100708.98
2018-11-07T08:04:06.829Z,100713.77
2018-11-07T08:06:37.068Z,100714.56
2018-11-07T08:09:08.715Z,100721.95
2018-11-07T08:11:37.301Z,100716.26
2018-11-07T08:14:06.262Z,100718.83
2018-11-07T08:16:34.727Z,100723.12
2018-11-07T08:19:03.608Z,100712.30
2018-11-07T08:21:32.091Z,100717.95
2018-11-07T08:24:00.711Z,100713.20
2018-11-07T08:26:29.348Z,100708.95
2018-11-07T08:28:57.981Z,100707.50
2018-11-07T08:31:26.530Z,100704.56
2018-11-07T08:33:55.040Z,100707.77
2018-11-07T08:36:23.885Z,100704.42
2018-11-07T08:38:52.478Z,100705.94
2018-11-07T08:41:21.755Z,100700.44
2018-11-07T08:43:50.375Z,100700.27
2018-11-07T08:46:19.287Z,100701.99
2018-11-07T08:48:47.827Z,100702.60
2018-11-07T08:51:16.452Z,100698.50
2018-11-07T08:53:45.138Z,100709.05
2018-11-07T08:56:13.659Z,100644.30
2018-11-07T08:58:42.721Z,100695.83
2018-11-07T09:01:11.284Z,100692.40
2018-11-07T09:03:39.798Z,100685.80
2018-11-07T09:06:08.342Z,100687.30
2018-11-07T09:08:36.857Z,100693.19
2018-11-07T09:11:05.480Z,100696.61
2018-11-07T09:13:34.062Z,100691.97
2018-11-07T09:16:03.123Z,100691.03
2018-11-07T09:18:31.634Z,100694.27
2018-11-07T09:21:00.639Z,100699.39
2018-11-07T09:23:29.142Z,100702.83
2018-11-07T09:25:57.647Z,100700.97
2018-11-07T09:28:26.180Z,100698.02
2018-11-07T09:30:54.743Z,100689.16
2018-11-07T09:33:23.649Z,100687.23
2018-11-07T09:35:52.243Z,100687.98
2018-11-07T09:38:21.235Z,100681.67
2018-11-07T09:40:49.744Z,100678.95
2018-11-07T09:43:18.471Z,100671.86
2018-11-07T09:45:47.022Z,100671.16
2018-11-07T09:48:15.708Z,100685.23
2018-11-07T09:50:44.367Z,100675.83
2018-11-07T09:53:12.890Z,100680.01
2018-11-07T09:55:41.847Z,100681.70
2018-11-07T09:58:10.496Z,100682.41
2018-11-07T10:00:39.647Z,100684.03
2018-11-07T10:03:08.126Z,100680.13
2018-11-07T10:05:36.712Z,100678.56
2018-11-07T10:08:05.750Z,100664.73
2018-11-07T10:10:34.274Z,100665.97
2018-11-07T10:13:03.001Z,100667.13
2018-11-07T10:15:31.601Z,100667.05
2018-11-07T10:18:00.736Z,100665.02
2018-11-07T10:20:29.285Z,100670.14
2018-11-07T10:22:58.040Z,100665.44
2018-11-07T10:25:26.672Z,100664.13
2018-11-07T10:27:55.648Z,100658.46
2018-11-07T10:30:23.902Z,100654.70
2018-11-07T10:32:52.603Z,100652.68
2018-11-07T10:35:21.595Z,100653.66
2018-11-07T10:37:50.284Z,100647.64
2018-11-07T10:40:20.200Z,100656.34
2018-11-07T10:42:48.862Z,100647.47
2018-11-07T10:45:17.830Z,100653.33
2018-11-07T10:47:47.144Z,100644.99
2018-11-07T10:50:16.979Z,100652.01
2018-11-07T10:52:46.063Z,100649.03
2018-11-07T10:55:15.690Z,100647.53
2018-11-07T10:57:44.359Z,100642.45
2018-11-07T11:00:20.128Z,100639.34
2018-11-07T11:02:53.827Z,100637.94
2018-11-07T11:05:22.506Z,100638.31
2018-11-07T11:07:51.305Z,100640.95
2018-11-07T11:10:20.007Z,100638.69
2018-11-07T11:12:48.753Z,100586.86
2018-11-07T11:15:17.279Z,100636.64
2018-11-07T11:17:45.963Z,100641.67
2018-11-07T11:20:15.255Z,100640.27
2018-11-07T11:22:43.779Z,100640.56
2018-11-07T11:25:12.763Z,100635.95
2018-11-07T11:27:41.344Z,100641.16
2018-11-07T11:30:10.619Z,100635.41
2018-11-07T11:32:39.687Z,100639.17
2018-11-07T11:35:09.518Z,100633.53
2018-11-07T11:37:38.035Z,100632.12
2018-11-07T11:40:08.694Z,100624.97
2018-11-07T11:42:37.223Z,100628.30
2018-11-07T11:45:07.516Z,100574.14
2018-11-07T11:47:36.099Z,100628.31
2018-11-07T11:50:06.823Z,100623.97
2018-11-07T11:52:35.340Z,100629.27
2018-11-07T11:55:04.305Z,100521.09
2018-11-07T11:57:33.298Z,100629.83
2018-11-07T12:00:02.465Z,100573.03
2018-11-07T12:02:30.761Z,100632.12
2018-11-07T12:04:59.423Z,100637.23
2018-11-07T12:07:27.939Z,100635.36
2018-11-07T12:09:56.469Z,100634.81
2018-11-07T12:12:25.256Z,100631.30
2018-11-07T12:14:53.852Z,100636.73
2018-11-07T12:17:22.894Z,100626.55
2018-11-07T12:19:51.466Z,100632.21
2018-11-07T12:22:20.832Z,100622.17
2018-11-07T12:24:49.343Z,100619.93
2018-11-07T12:27:17.982Z,100616.15
2018-11-07T12:29:46.615Z,100622.36
2018-11-07T12:32:15.150Z,100622.36
2018-11-07T12:34:43.912Z,100618.98
2018-11-07T12:37:12.414Z,100622.86
2018-11-07T12:39:41.256Z,100627.66
2018-11-07T12:42:09.837Z,100621.81
2018-11-07T12:44:38.463Z,100613.69
2018-11-07T12:47:07.310Z,100619.36
2018-11-07T12:49:35.867Z,100616.89
2018-11-07T12:52:05.081Z,100620.48
2018-11-07T12:54:33.673Z,100621.45
2018-11-07T12:57:02.806Z,100622.77
2018-11-07T12:59:31.519Z,100621.99
2018-11-07T13:02:01.091Z,100573.97
2018-11-07T13:04:29.680Z,100596.22
2018-11-07T13:06:58.763Z,100609.89
2018-11-07T13:09:27.322Z,100613.86
2018-11-07T13:11:55.931Z,100609.52
2018-11-07T13:14:24.435Z,100609.67
2018-11-07T13:16:52.967Z,100605.70
2018-11-07T13:19:21.598Z,100601.95
2018-11-07T13:21:50.099Z,100603.05
2018-11-07T13:24:19.109Z,100607.11
2018-11-07T13:26:47.743Z,100599.63
2018-11-07T13:29:16.521Z,100599.36
2018-11-07T13:31:45.146Z,100608.12
2018-11-07T13:34:14.015Z,100603.23
2018-11-07T13:36:43.040Z,100561.73
2018-11-07T13:39:13.389Z,100613.69
2018-11-07T13:41:42.366Z,100613.78
2018-11-07T13:44:10.911Z,100617.55
2018-11-07T13:46:39.636Z,100608.93
2018-11-07T13:49:08.144Z,100612.33
2018-11-07T13:51:37.029Z,100627.80
2018-11-07T13:54:05.704Z,100613.92
2018-11-07T13:56:34.529Z,100617.48
2018-11-07T13:59:03.092Z,100611.37
2018-11-07T14:01:31.605Z,100609.36
2018-11-07T14:04:00.143Z,100560.75
2018-11-07T14:06:28.635Z,100606.31
2018-11-07T14:08:57.465Z,100611.78
2018-11-07T14:11:25.991Z,100607.58
2018-11-07T14:13:54.649Z,100611.72
2018-11-07T14:16:23.406Z,100613.80
2018-11-07T14:18:52.016Z,100547.66
2018-11-07T14:21:20.506Z,100623.08
2018-11-07T14:23:49.040Z,100621.09
2018-11-07T14:26:18.011Z,100611.70
2018-11-07T14:28:46.534Z,100615.92
2018-11-07T14:31:15.360Z,100571.16
2018-11-07T14:33:44.539Z,100623.64
2018-11-07T14:36:13.375Z,100623.44
2018-11-07T14:38:42.020Z,100619.64
2018-11-07T14:41:10.668Z,100620.35
2018-11-07T14:43:39.250Z,100619.61
2018-11-07T14:46:07.819Z,100609.29
2018-11-07T14:48:36.633Z,100605.00
2018-11-07T14:51:05.718Z,100607.98
2018-11-07T14:53:34.872Z,100592.30
2018-11-07T14:56:03.285Z,100592.87
2018-11-07T14:58:31.968Z,100595.27
2018-11-07T15:01:00.507Z,100594.20
2018-11-07T15:03:29.091Z,100599.97
2018-11-07T15:05:57.659Z,100600.67
2018-11-07T15:08:26.282Z,100598.57
2018-11-07T15:10:54.947Z,100541.83
2018-11-07T15:13:23.450Z,100595.88
2018-11-07T15:15:52.477Z,100604.38
2018-11-07T15:18:20.950Z,100604.54
2018-11-07T15:20:49.528Z,100599.26
2018-11-07T15:23:18.151Z,100612.05
2018-11-07T15:25:46.769Z,100613.37
2018-11-07T15:28:15.875Z,100620.38
2018-11-07T15:30:44.474Z,100619.06
2018-11-07T15:33:13.347Z,100613.37
2018-11-07T15:35:41.905Z,100616.25
2018-11-07T15:38:10.595Z,100622.56
2018-11-07T15:40:39.104Z,100621.62
2018-11-07T15:43:07.622Z,100630.48
2018-11-07T15:45:36.147Z,100622.48
2018-11-07T15:48:04.714Z,100623.88
2018-11-07T15:50:38.739Z,100623.34
2018-11-07T15:53:07.493Z,100625.58
2018-11-07T15:55:36.095Z,100636.14
2018-11-07T15:58:04.639Z,100641.83
2018-11-07T16:00:33.352Z,100653.92
2018-11-07T16:03:01.850Z,100646.87
2018-11-07T16:05:30.915Z,100651.28
2018-11-07T16:07:59.431Z,100649.42
2018-11-07T16:10:28.601Z,100656.03
2018-11-07T16:12:57.311Z,100654.87
2018-11-07T16:15:26.096Z,100659.83
2018-11-07T16:17:54.570Z,100664.70
2018-11-07T16:20:23.139Z,100664.33
2018-11-07T16:22:52.133Z,100666.97
2018-11-07T16:25:20.732Z,100666.97
2018-11-07T16:27:49.834Z,100661.69
2018-11-07T16:30:19.737Z,100661.84
2018-11-07T16:32:48.731Z,100669.92
2018-11-07T16:35:17.329Z,100674.42
2018-11-07T16:37:46.335Z,100686.88
2018-11-07T16:40:16.366Z,100682.91
2018-11-07T16:42:45.640Z,100680.72
2018-11-07T16:45:15.132Z,100689.63
2018-11-07T16:47:44.059Z,100690.55
2018-11-07T16:50:13.806Z,100698.47
2018-11-07T16:52:42.532Z,100696.77
2018-11-07T16:55:11.139Z,100700.35
2018-11-07T16:57:40.011Z,100706.16
2018-11-07T17:00:12.531Z,100707.48
2018-11-07T17:02:41.715Z,100699.34
2018-11-07T17:05:11.061Z,100708.58
2018-11-07T17:07:40.269Z,100712.13
2018-11-07T17:10:09.505Z,100709.64
2018-11-07T17:12:38.110Z,100720.69
2018-11-07T17:15:06.907Z,100715.08
2018-11-07T17:17:35.471Z,100722.47
2018-11-07T17:20:04.071Z,100720.36
2018-11-07T17:22:32.619Z,100727.74
2018-11-07T17:25:01.683Z,100731.63
2018-11-07T17:27:30.178Z,100735.66
2018-11-07T17:29:58.923Z,100740.48
2018-11-07T17:32:27.432Z,100744.03
2018-11-07T17:34:55.974Z,100752.81
2018-11-07T17:37:24.481Z,100751.20
2018-11-07T17:39:52.990Z,100759.19
2018-11-07T17:42:21.952Z,100639.67
2018-11-07T17:44:50.460Z,100763.07
2018-11-07T17:47:19.424Z,100768.80
2018-11-07T17:49:48.013Z,100768.02
2018-11-07T17:52:16.653Z,100769.11
2018-11-07T17:54:45.207Z,100769.26
2018-11-07T17:57:14.135Z,100769.26
2018-11-07T17:59:42.952Z,100763.60
2018-11-07T18:02:11.507Z,100768.65
2018-11-07T18:04:40.743Z,100761.27
2018-11-07T18:07:09.231Z,100759.15
2018-11-07T18:09:37.948Z,100766.38
2018-11-07T18:12:06.705Z,100767.36
2018-11-07T18:14:35.739Z,100769.23
2018-11-07T18:17:04.315Z,100771.16
2018-11-07T18:19:33.004Z,100776.59
2018-11-07T18:22:01.900Z,100774.02
2018-11-07T18:24:30.467Z,100772.32
2018-11-07T18:27:04.287Z,100760.11
2018-11-07T18:29:34.160Z,100777.59
2018-11-07T18:32:03.637Z,100783.09
2018-11-07T18:34:35.343Z,100778.20
2018-11-07T18:37:04.727Z,100791.08
2018-11-07T18:39:34.412Z,100795.03
2018-11-07T18:42:03.898Z,100792.92
2018-11-07T18:44:32.933Z,100798.98
2018-11-07T18:47:01.328Z,100799.89
2018-11-07T18:49:30.616Z,100700.49
2018-11-07T18:51:59.164Z,100804.48
2018-11-07T18:54:27.674Z,100811.91
2018-11-07T18:56:56.211Z,100791.14
2018-11-07T18:59:24.846Z,100812.84
2018-11-07T19:01:54.748Z,100816.80
2018-11-07T19:04:23.260Z,100811.67
2018-11-07T19:06:52.022Z,100814.31
2018-11-07T19:09:20.496Z,100823.02
2018-11-07T19:11:49.416Z,100825.58
2018-11-07T19:14:17.955Z,100824.71
2018-11-07T19:16:46.624Z,100823.77
2018-11-07T19:19:15.252Z,100816.20
2018-11-07T19:21:45.835Z,100824.42
2018-11-07T19:24:14.359Z,100824.42
2018-11-07T19:26:42.922Z,100837.55
2018-11-07T19:29:11.495Z,100822.03
2018-11-07T19:31:40.133Z,100820.85
2018-11-07T19:34:09.029Z,100830.59
2018-11-07T19:36:37.550Z,100826.78
2018-11-07T19:39:08.355Z,100833.23
2018-11-07T19:41:37.334Z,100826.63
2018-11-07T19:44:06.404Z,100755.36
2018-11-07T19:46:35.000Z,100836.10
2018-11-07T19:49:03.565Z,100842.17
2018-11-07T19:51:32.223Z,100839.47
2018-11-07T19:54:00.983Z,100842.17
2018-11-07T19:56:29.743Z,100792.56
2018-11-07T19:58:58.368Z,100842.97
2018-11-07T20:01:27.372Z,100849.95
2018-11-07T20:03:55.854Z,100842.03
2018-11-07T20:06:24.709Z,100843.80
2018-11-07T20:08:53.229Z,100842.03
2018-11-07T20:11:21.815Z,100849.80
2018-11-07T20:13:50.317Z,100850.59
2018-11-07T20:16:18.853Z,100846.08
2018-11-07T20:18:47.652Z,100842.68
2018-11-07T20:21:16.213Z,100851.21
2018-11-07T20:23:45.319Z,100789.63
2018-11-07T20:26:13.869Z,100853.47
2018-11-07T20:28:42.796Z,100854.34
2018-11-07T20:31:11.526Z,100852.95
2018-11-07T20:33:42.951Z,100851.14
2018-11-07T20:36:11.626Z,100846.72
2018-11-07T20:38:40.566Z,100853.33
2018-11-07T20:41:09.087Z,100858.05
2018-11-07T20:43:37.596Z,100855.41
2018-11-07T20:46:06.473Z,100854.64
2018-11-07T20:48:34.979Z,100856.83
2018-11-07T20:51:03.647Z,100854.78
2018-11-07T20:53:32.173Z,100867.84
2018-11-07T20:56:01.112Z,100808.09
2018-11-07T20:58:29.620Z,100875.20
2018-11-07T21:00:58.471Z,100875.83
2018-11-07T21:03:27.162Z,100877.31
2018-11-07T21:05:55.783Z,100875.61
2018-11-07T21:08:24.479Z,100875.53
2018-11-07T21:10:52.960Z,100873.35
2018-11-07T21:13:21.870Z,100878.25
2018-11-07T21:15:50.331Z,100880.89
2018-11-07T21:18:19.166Z,100881.03
2018-11-07T21:20:47.650Z,100881.80
2018-11-07T21:23:16.286Z,100886.17
2018-11-07T21:25:44.791Z,100889.71
2018-11-07T21:28:13.386Z,100894.09
2018-11-07T21:30:42.307Z,100887.80
2018-11-07T21:33:10.879Z,100886.93
2018-11-07T21:35:39.657Z,100887.80
2018-11-07T21:38:08.172Z,100892.20
2018-11-07T21:40:36.755Z,100886.93
2018-11-07T21:43:05.446Z,100896.58
2018-11-07T21:45:34.070Z,100893.52
2018-11-07T21:48:03.128Z,100885.16
2018-11-07T21:50:31.666Z,100883.45
2018-11-07T21:53:00.478Z,100885.16
2018-11-07T21:55:28.995Z,100893.14
2018-11-07T21:57:57.570Z,100897.48
2018-11-07T22:00:26.110Z,100895.78
2018-11-07T22:02:54.681Z,100897.80
2018-11-07T22:05:23.282Z,100784.36
2018-11-07T22:07:51.858Z,100902.00
2018-11-07T22:10:20.726Z,100906.34
2018-11-07T22:12:49.315Z,100908.98
2018-11-07T22:15:18.083Z,100909.77
2018-11-07T22:17:46.560Z,100906.20
2018-11-07T22:20:19.982Z,100907.14
2018-11-07T22:22:48.578Z,100906.72
2018-11-07T22:25:17.614Z,100910.69
2018-11-07T22:27:46.175Z,100915.05
2018-11-07T22:30:16.084Z,100913.32
2018-11-07T22:32:44.667Z,100921.66
2018-11-07T22:35:14.798Z,100924.67
2018-11-07T22:37:43.915Z,100928.25
2018-11-07T22:40:14.639Z,100919.99
2018-11-07T22:42:43.450Z,100933.53
2018-11-07T22:45:12.929Z,100930.89
2018-11-07T22:47:41.417Z,100936.17
2018-11-07T22:50:11.976Z,100934.44
2018-11-07T22:52:41.198Z,100938.95
2018-11-07T22:55:10.164Z,100931.87
2018-11-07T22:57:39.159Z,100944.09
2018-11-07T23:00:20.644Z,100941.45
2018-11-07T23:02:50.684Z,100942.70
2018-11-07T23:05:19.278Z,100944.92
2018-11-07T23:07:48.212Z,100944.09
2018-11-07T23:10:16.804Z,100950.27
2018-11-07T23:12:45.733Z,100953.84
2018-11-07T23:15:19.734Z,100951.20
2018-11-07T23:17:48.244Z,100956.34
2018-11-07T23:20:16.937Z,100957.14
2018-11-07T23:22:45.584Z,100959.78
2018-11-07T23:25:14.047Z,100955.55
2018-11-07T23:27:42.703Z,100967.70
2018-11-07T23:30:11.343Z,100966.91
2018-11-07T23:32:40.139Z,100962.56
2018-11-07T23:35:08.669Z,100966.91
2018-11-07T23:37:37.503Z,100958.53
2018-11-07T23:40:06.700Z,100958.46
2018-11-07T23:42:35.295Z,100965.06
2018-11-07T23:45:04.212Z,100968.60
2018-11-07T23:47:32.789Z,100976.52
2018-11-07T23:50:01.644Z,100984.30
2018-11-07T23:52:35.697Z,100980.83
2018-11-07T23:55:04.251Z,100981.28
2018-11-07T23:57:32.792Z,100989.72
